sensor_id;sensor_type;location;lat;lon;timestamp;P1;durP1;ratioP1;P2;durP2;ratioP2
18090;SDS011;9172;49.948;9.208;2023-08-06T00:00:44;2.53;;;1.90;;
18090;SDS011;9172;49.948;9.208;2023-08-06T00:03:13;6.87;;;1.73;;
18090;SDS011;9172;49.948;9.208;2023-08-06T00:05:43;6.03;;;1.83;;
18090;SDS011;9172;49.948;9.208;2023-08-06T00:08:12;4.20;;;1.70;;
18090;SDS011;9172;49.948;9.208;2023-08-06T00:10:42;2.77;;;1.90;;
18090;SDS011;9172;49.948;9.208;2023-08-06T00:13:14;2.60;;;1.70;;
18090;SDS011;9172;49.948;9.208;2023-08-06T00:15:42;4.90;;;1.97;;
18090;SDS011;9172;49.948;9.208;2023-08-06T00:18:12;5.27;;;2.00;;
18090;SDS011;9172;49.948;9.208;2023-08-06T00:20:40;4.83;;;1.90;;
18090;SDS011;9172;49.948;9.208;2023-08-06T00:23:09;2.40;;;1.63;;
18090;SDS011;9172;49.948;9.208;2023-08-06T00:25:38;4.50;;;1.80;;
18090;SDS011;9172;49.948;9.208;2023-08-06T00:28:06;5.93;;;1.70;;
18090;SDS011;9172;49.948;9.208;2023-08-06T00:30:36;3.33;;;1.70;;
18090;SDS011;9172;49.948;9.208;2023-08-06T00:33:05;4.67;;;1.73;;
18090;SDS011;9172;49.948;9.208;2023-08-06T00:35:34;2.23;;;1.80;;
18090;SDS011;9172;49.948;9.208;2023-08-06T00:38:02;3.00;;;2.00;;
18090;SDS011;9172;49.948;9.208;2023-08-06T00:40:31;4.63;;;2.10;;
18090;SDS011;9172;49.948;9.208;2023-08-06T00:43:00;2.77;;;1.70;;
18090;SDS011;9172;49.948;9.208;2023-08-06T00:45:28;3.20;;;1.93;;
18090;SDS011;9172;49.948;9.208;2023-08-06T00:47:59;3.80;;;1.80;;
18090;SDS011;9172;49.948;9.208;2023-08-06T00:50:30;2.37;;;1.70;;
18090;SDS011;9172;49.948;9.208;2023-08-06T00:52:58;2.60;;;1.97;;
18090;SDS011;9172;49.948;9.208;2023-08-06T00:55:28;3.23;;;2.20;;
18090;SDS011;9172;49.948;9.208;2023-08-06T00:57:57;2.27;;;1.53;;
18090;SDS011;9172;49.948;9.208;2023-08-06T01:00:27;3.33;;;1.90;;
18090;SDS011;9172;49.948;9.208;2023-08-06T01:02:57;3.83;;;2.00;;
18090;SDS011;9172;49.948;9.208;2023-08-06T01:05:27;4.13;;;1.77;;
18090;SDS011;9172;49.948;9.208;2023-08-06T01:08:01;2.00;;;1.80;;
18090;SDS011;9172;49.948;9.208;2023-08-06T01:10:49;2.90;;;2.33;;
18090;SDS011;9172;49.948;9.208;2023-08-06T01:13:16;3.07;;;2.10;;
18090;SDS011;9172;49.948;9.208;2023-08-06T01:15:49;3.57;;;2.20;;
18090;SDS011;9172;49.948;9.208;2023-08-06T01:18:20;2.53;;;1.90;;
18090;SDS011;9172;49.948;9.208;2023-08-06T01:20:49;3.20;;;1.90;;
18090;SDS011;9172;49.948;9.208;2023-08-06T01:23:18;3.00;;;2.00;;
18090;SDS011;9172;49.948;9.208;2023-08-06T01:25:49;2.23;;;1.70;;
18090;SDS011;9172;49.948;9.208;2023-08-06T01:28:22;4.17;;;1.80;;
18090;SDS011;9172;49.948;9.208;2023-08-06T01:30:55;4.03;;;2.20;;
18090;SDS011;9172;49.948;9.208;2023-08-06T01:33:26;3.63;;;1.70;;
18090;SDS011;9172;49.948;9.208;2023-08-06T01:35:58;8.20;;;2.10;;
18090;SDS011;9172;49.948;9.208;2023-08-06T01:38:28;2.00;;;1.73;;
18090;SDS011;9172;49.948;9.208;2023-08-06T01:40:58;2.37;;;1.70;;
18090;SDS011;9172;49.948;9.208;2023-08-06T01:43:27;3.50;;;2.10;;
18090;SDS011;9172;49.948;9.208;2023-08-06T01:45:56;3.00;;;1.93;;
18090;SDS011;9172;49.948;9.208;2023-08-06T01:48:25;2.63;;;1.80;;
18090;SDS011;9172;49.948;9.208;2023-08-06T01:50:54;3.00;;;2.00;;
18090;SDS011;9172;49.948;9.208;2023-08-06T01:53:22;2.10;;;1.67;;
18090;SDS011;9172;49.948;9.208;2023-08-06T01:55:51;5.97;;;2.30;;
18090;SDS011;9172;49.948;9.208;2023-08-06T01:58:20;2.43;;;1.97;;
18090;SDS011;9172;49.948;9.208;2023-08-06T02:00:48;3.93;;;1.90;;
18090;SDS011;9172;49.948;9.208;2023-08-06T02:03:17;2.30;;;2.00;;
18090;SDS011;9172;49.948;9.208;2023-08-06T02:05:47;2.43;;;1.73;;
18090;SDS011;9172;49.948;9.208;2023-08-06T02:08:17;3.37;;;1.90;;
18090;SDS011;9172;49.948;9.208;2023-08-06T02:10:46;3.37;;;2.10;;
18090;SDS011;9172;49.948;9.208;2023-08-06T02:13:16;2.87;;;1.80;;
18090;SDS011;9172;49.948;9.208;2023-08-06T02:15:45;3.53;;;2.20;;
18090;SDS011;9172;49.948;9.208;2023-08-06T02:18:14;5.23;;;2.20;;
18090;SDS011;9172;49.948;9.208;2023-08-06T02:20:44;4.43;;;2.10;;
18090;SDS011;9172;49.948;9.208;2023-08-06T02:23:23;4.57;;;2.37;;
18090;SDS011;9172;49.948;9.208;2023-08-06T02:25:57;1.83;;;1.53;;
18090;SDS011;9172;49.948;9.208;2023-08-06T02:28:26;4.67;;;2.10;;
18090;SDS011;9172;49.948;9.208;2023-08-06T02:30:55;3.87;;;1.97;;
18090;SDS011;9172;49.948;9.208;2023-08-06T02:33:24;3.30;;;1.80;;
18090;SDS011;9172;49.948;9.208;2023-08-06T02:35:58;3.53;;;2.20;;
18090;SDS011;9172;49.948;9.208;2023-08-06T02:38:28;4.10;;;1.70;;
18090;SDS011;9172;49.948;9.208;2023-08-06T02:40:57;2.87;;;1.80;;
18090;SDS011;9172;49.948;9.208;2023-08-06T02:43:25;4.13;;;2.10;;
18090;SDS011;9172;49.948;9.208;2023-08-06T02:45:56;4.20;;;1.90;;
18090;SDS011;9172;49.948;9.208;2023-08-06T02:48:25;2.73;;;1.40;;
18090;SDS011;9172;49.948;9.208;2023-08-06T02:50:57;2.53;;;1.77;;
18090;SDS011;9172;49.948;9.208;2023-08-06T02:53:26;3.63;;;1.93;;
18090;SDS011;9172;49.948;9.208;2023-08-06T02:55:54;3.07;;;1.87;;
18090;SDS011;9172;49.948;9.208;2023-08-06T02:58:26;2.13;;;1.70;;
18090;SDS011;9172;49.948;9.208;2023-08-06T03:01:01;4.83;;;1.87;;
18090;SDS011;9172;49.948;9.208;2023-08-06T03:03:31;4.57;;;1.80;;
18090;SDS011;9172;49.948;9.208;2023-08-06T03:06:00;2.37;;;1.70;;
18090;SDS011;9172;49.948;9.208;2023-08-06T03:08:29;4.60;;;2.03;;
18090;SDS011;9172;49.948;9.208;2023-08-06T03:10:58;2.77;;;1.70;;
18090;SDS011;9172;49.948;9.208;2023-08-06T03:13:27;4.80;;;1.90;;
18090;SDS011;9172;49.948;9.208;2023-08-06T03:15:57;3.37;;;1.80;;
18090;SDS011;9172;49.948;9.208;2023-08-06T03:18:27;4.10;;;1.97;;
18090;SDS011;9172;49.948;9.208;2023-08-06T03:20:55;3.67;;;1.90;;
18090;SDS011;9172;49.948;9.208;2023-08-06T03:23:24;2.80;;;1.80;;
18090;SDS011;9172;49.948;9.208;2023-08-06T03:25:53;2.70;;;1.63;;
18090;SDS011;9172;49.948;9.208;2023-08-06T03:28:22;2.90;;;1.90;;
18090;SDS011;9172;49.948;9.208;2023-08-06T03:30:59;3.30;;;2.20;;
18090;SDS011;9172;49.948;9.208;2023-08-06T03:33:28;4.77;;;2.63;;
18090;SDS011;9172;49.948;9.208;2023-08-06T03:35:57;2.47;;;1.90;;
18090;SDS011;9172;49.948;9.208;2023-08-06T03:38:25;3.27;;;1.60;;
18090;SDS011;9172;49.948;9.208;2023-08-06T03:40:54;2.00;;;1.60;;
18090;SDS011;9172;49.948;9.208;2023-08-06T03:43:23;3.27;;;2.10;;
18090;SDS011;9172;49.948;9.208;2023-08-06T03:45:51;5.13;;;1.70;;
18090;SDS011;9172;49.948;9.208;2023-08-06T03:48:21;3.27;;;2.00;;
18090;SDS011;9172;49.948;9.208;2023-08-06T03:50:51;6.10;;;2.00;;
18090;SDS011;9172;49.948;9.208;2023-08-06T03:53:19;2.73;;;1.70;;
18090;SDS011;9172;49.948;9.208;2023-08-06T03:55:49;3.40;;;2.20;;
18090;SDS011;9172;49.948;9.208;2023-08-06T03:58:17;4.80;;;2.43;;
18090;SDS011;9172;49.948;9.208;2023-08-06T04:00:46;2.13;;;1.80;;
18090;SDS011;9172;49.948;9.208;2023-08-06T04:03:15;5.33;;;1.70;;
18090;SDS011;9172;49.948;9.208;2023-08-06T04:05:44;4.77;;;1.90;;
18090;SDS011;9172;49.948;9.208;2023-08-06T04:08:13;4.23;;;2.00;;
18090;SDS011;9172;49.948;9.208;2023-08-06T04:10:41;5.17;;;1.90;;
18090;SDS011;9172;49.948;9.208;2023-08-06T04:13:10;6.47;;;2.30;;
18090;SDS011;9172;49.948;9.208;2023-08-06T04:15:39;2.80;;;1.50;;
18090;SDS011;9172;49.948;9.208;2023-08-06T04:18:09;3.23;;;1.50;;
18090;SDS011;9172;49.948;9.208;2023-08-06T04:20:42;3.47;;;2.10;;
18090;SDS011;9172;49.948;9.208;2023-08-06T04:23:11;3.97;;;1.80;;
18090;SDS011;9172;49.948;9.208;2023-08-06T04:25:40;2.83;;;1.70;;
18090;SDS011;9172;49.948;9.208;2023-08-06T04:28:09;3.10;;;2.33;;
18090;SDS011;9172;49.948;9.208;2023-08-06T04:30:37;6.00;;;1.80;;
18090;SDS011;9172;49.948;9.208;2023-08-06T04:33:06;4.57;;;1.90;;
18090;SDS011;9172;49.948;9.208;2023-08-06T04:35:35;3.07;;;1.63;;
18090;SDS011;9172;49.948;9.208;2023-08-06T04:38:04;3.63;;;1.73;;
18090;SDS011;9172;49.948;9.208;2023-08-06T04:40:34;2.50;;;1.67;;
18090;SDS011;9172;49.948;9.208;2023-08-06T04:43:03;2.93;;;1.70;;
18090;SDS011;9172;49.948;9.208;2023-08-06T04:45:31;4.53;;;1.93;;
18090;SDS011;9172;49.948;9.208;2023-08-06T04:48:02;6.93;;;1.87;;
18090;SDS011;9172;49.948;9.208;2023-08-06T04:50:31;3.93;;;1.70;;
18090;SDS011;9172;49.948;9.208;2023-08-06T04:53:00;2.80;;;2.03;;
18090;SDS011;9172;49.948;9.208;2023-08-06T04:55:29;3.33;;;1.67;;
18090;SDS011;9172;49.948;9.208;2023-08-06T04:57:58;3.73;;;1.50;;
18090;SDS011;9172;49.948;9.208;2023-08-06T05:00:27;4.27;;;1.70;;
18090;SDS011;9172;49.948;9.208;2023-08-06T05:02:59;3.70;;;1.60;;
18090;SDS011;9172;49.948;9.208;2023-08-06T05:05:27;4.30;;;2.57;;
18090;SDS011;9172;49.948;9.208;2023-08-06T05:07:57;2.87;;;1.80;;
18090;SDS011;9172;49.948;9.208;2023-08-06T05:10:25;6.37;;;1.80;;
18090;SDS011;9172;49.948;9.208;2023-08-06T05:12:54;4.83;;;2.43;;
18090;SDS011;9172;49.948;9.208;2023-08-06T05:15:23;3.87;;;2.00;;
18090;SDS011;9172;49.948;9.208;2023-08-06T05:17:52;3.70;;;1.77;;
18090;SDS011;9172;49.948;9.208;2023-08-06T05:20:20;4.63;;;1.80;;
18090;SDS011;9172;49.948;9.208;2023-08-06T05:22:49;3.93;;;1.70;;
18090;SDS011;9172;49.948;9.208;2023-08-06T05:25:18;2.90;;;1.70;;
18090;SDS011;9172;49.948;9.208;2023-08-06T05:27:47;2.40;;;1.40;;
18090;SDS011;9172;49.948;9.208;2023-08-06T05:30:16;2.63;;;1.43;;
18090;SDS011;9172;49.948;9.208;2023-08-06T05:32:45;2.50;;;1.43;;
18090;SDS011;9172;49.948;9.208;2023-08-06T05:35:14;2.97;;;1.60;;
18090;SDS011;9172;49.948;9.208;2023-08-06T05:37:44;5.20;;;1.97;;
18090;SDS011;9172;49.948;9.208;2023-08-06T05:40:13;1.80;;;1.43;;
18090;SDS011;9172;49.948;9.208;2023-08-06T05:42:43;4.33;;;1.70;;
18090;SDS011;9172;49.948;9.208;2023-08-06T05:45:12;3.17;;;1.93;;
18090;SDS011;9172;49.948;9.208;2023-08-06T05:47:41;4.17;;;1.93;;
18090;SDS011;9172;49.948;9.208;2023-08-06T05:50:11;2.90;;;1.70;;
18090;SDS011;9172;49.948;9.208;2023-08-06T05:52:41;8.80;;;1.90;;
18090;SDS011;9172;49.948;9.208;2023-08-06T05:55:11;6.20;;;1.80;;
18090;SDS011;9172;49.948;9.208;2023-08-06T05:57:40;3.47;;;2.00;;
18090;SDS011;9172;49.948;9.208;2023-08-06T06:00:11;3.83;;;1.70;;
18090;SDS011;9172;49.948;9.208;2023-08-06T06:02:40;4.50;;;1.47;;
18090;SDS011;9172;49.948;9.208;2023-08-06T06:05:10;3.03;;;1.43;;
18090;SDS011;9172;49.948;9.208;2023-08-06T06:07:39;2.87;;;1.70;;
18090;SDS011;9172;49.948;9.208;2023-08-06T06:10:09;4.00;;;1.23;;
18090;SDS011;9172;49.948;9.208;2023-08-06T06:12:39;2.40;;;1.30;;
18090;SDS011;9172;49.948;9.208;2023-08-06T06:15:08;2.30;;;1.47;;
18090;SDS011;9172;49.948;9.208;2023-08-06T06:17:37;1.97;;;1.30;;
18090;SDS011;9172;49.948;9.208;2023-08-06T06:20:07;2.70;;;1.10;;
18090;SDS011;9172;49.948;9.208;2023-08-06T06:22:36;2.80;;;1.20;;
18090;SDS011;9172;49.948;9.208;2023-08-06T06:25:06;1.20;;;0.90;;
18090;SDS011;9172;49.948;9.208;2023-08-06T06:27:36;2.17;;;1.10;;
18090;SDS011;9172;49.948;9.208;2023-08-06T06:30:06;5.33;;;1.50;;
18090;SDS011;9172;49.948;9.208;2023-08-06T06:32:38;4.00;;;1.47;;
18090;SDS011;9172;49.948;9.208;2023-08-06T06:35:08;2.37;;;1.20;;
18090;SDS011;9172;49.948;9.208;2023-08-06T06:37:37;1.40;;;1.13;;
18090;SDS011;9172;49.948;9.208;2023-08-06T06:40:07;1.87;;;1.07;;
18090;SDS011;9172;49.948;9.208;2023-08-06T06:42:37;1.93;;;0.73;;
18090;SDS011;9172;49.948;9.208;2023-08-06T06:45:07;7.93;;;1.30;;
18090;SDS011;9172;49.948;9.208;2023-08-06T06:47:37;2.67;;;1.63;;
18090;SDS011;9172;49.948;9.208;2023-08-06T06:50:06;5.93;;;1.37;;
18090;SDS011;9172;49.948;9.208;2023-08-06T06:52:36;1.63;;;0.80;;
18090;SDS011;9172;49.948;9.208;2023-08-06T06:55:05;3.10;;;1.10;;
18090;SDS011;9172;49.948;9.208;2023-08-06T06:57:35;1.93;;;0.80;;
18090;SDS011;9172;49.948;9.208;2023-08-06T07:00:04;1.27;;;0.70;;
18090;SDS011;9172;49.948;9.208;2023-08-06T07:02:34;4.20;;;0.83;;
18090;SDS011;9172;49.948;9.208;2023-08-06T07:05:03;2.70;;;0.70;;
18090;SDS011;9172;49.948;9.208;2023-08-06T07:07:33;1.80;;;0.70;;
18090;SDS011;9172;49.948;9.208;2023-08-06T07:10:04;0.90;;;0.70;;
18090;SDS011;9172;49.948;9.208;2023-08-06T07:12:34;1.27;;;0.70;;
18090;SDS011;9172;49.948;9.208;2023-08-06T07:15:04;1.73;;;0.83;;
18090;SDS011;9172;49.948;9.208;2023-08-06T07:17:33;0.67;;;0.60;;
18090;SDS011;9172;49.948;9.208;2023-08-06T07:20:02;2.87;;;0.60;;
18090;SDS011;9172;49.948;9.208;2023-08-06T07:22:34;1.07;;;0.87;;
18090;SDS011;9172;49.948;9.208;2023-08-06T07:25:03;1.63;;;0.50;;
18090;SDS011;9172;49.948;9.208;2023-08-06T07:27:32;2.30;;;0.60;;
18090;SDS011;9172;49.948;9.208;2023-08-06T07:30:02;1.43;;;0.60;;
18090;SDS011;9172;49.948;9.208;2023-08-06T07:32:31;0.73;;;0.50;;
18090;SDS011;9172;49.948;9.208;2023-08-06T07:35:00;0.47;;;0.43;;
18090;SDS011;9172;49.948;9.208;2023-08-06T07:37:30;1.57;;;0.50;;
18090;SDS011;9172;49.948;9.208;2023-08-06T07:39:58;1.20;;;0.50;;
18090;SDS011;9172;49.948;9.208;2023-08-06T07:42:29;1.23;;;0.70;;
18090;SDS011;9172;49.948;9.208;2023-08-06T07:44:58;0.80;;;0.57;;
18090;SDS011;9172;49.948;9.208;2023-08-06T07:47:27;0.83;;;0.40;;
18090;SDS011;9172;49.948;9.208;2023-08-06T07:49:56;4.00;;;0.50;;
18090;SDS011;9172;49.948;9.208;2023-08-06T07:52:25;2.30;;;0.63;;
18090;SDS011;9172;49.948;9.208;2023-08-06T07:54:55;0.43;;;0.33;;
18090;SDS011;9172;49.948;9.208;2023-08-06T07:57:23;1.80;;;0.40;;
18090;SDS011;9172;49.948;9.208;2023-08-06T07:59:53;1.70;;;0.60;;
18090;SDS011;9172;49.948;9.208;2023-08-06T08:02:22;0.40;;;0.40;;
18090;SDS011;9172;49.948;9.208;2023-08-06T08:04:50;0.40;;;0.40;;
18090;SDS011;9172;49.948;9.208;2023-08-06T08:07:20;0.80;;;0.40;;
18090;SDS011;9172;49.948;9.208;2023-08-06T08:09:49;0.73;;;0.40;;
18090;SDS011;9172;49.948;9.208;2023-08-06T08:12:18;0.77;;;0.33;;
18090;SDS011;9172;49.948;9.208;2023-08-06T08:14:47;0.60;;;0.40;;
18090;SDS011;9172;49.948;9.208;2023-08-06T08:17:16;1.63;;;0.40;;
18090;SDS011;9172;49.948;9.208;2023-08-06T08:19:45;0.80;;;0.43;;
18090;SDS011;9172;49.948;9.208;2023-08-06T08:22:13;1.87;;;0.50;;
18090;SDS011;9172;49.948;9.208;2023-08-06T08:24:42;1.37;;;0.77;;
18090;SDS011;9172;49.948;9.208;2023-08-06T08:27:11;0.73;;;0.53;;
18090;SDS011;9172;49.948;9.208;2023-08-06T08:32:17;0.50;;;0.40;;
18090;SDS011;9172;49.948;9.208;2023-08-06T08:34:45;0.40;;;0.40;;
18090;SDS011;9172;49.948;9.208;2023-08-06T08:37:15;2.83;;;0.60;;
18090;SDS011;9172;49.948;9.208;2023-08-06T08:39:44;0.90;;;0.47;;
18090;SDS011;9172;49.948;9.208;2023-08-06T08:42:13;0.80;;;0.50;;
18090;SDS011;9172;49.948;9.208;2023-08-06T08:44:43;1.90;;;0.40;;
18090;SDS011;9172;49.948;9.208;2023-08-06T08:47:12;0.40;;;0.30;;
18090;SDS011;9172;49.948;9.208;2023-08-06T08:49:42;0.50;;;0.50;;
18090;SDS011;9172;49.948;9.208;2023-08-06T08:52:14;0.50;;;0.50;;
18090;SDS011;9172;49.948;9.208;2023-08-06T08:54:45;0.50;;;0.37;;
18090;SDS011;9172;49.948;9.208;2023-08-06T08:57:16;2.57;;;0.47;;
18090;SDS011;9172;49.948;9.208;2023-08-06T08:59:45;0.60;;;0.50;;
18090;SDS011;9172;49.948;9.208;2023-08-06T09:02:14;0.93;;;0.50;;
18090;SDS011;9172;49.948;9.208;2023-08-06T09:04:43;0.60;;;0.50;;
18090;SDS011;9172;49.948;9.208;2023-08-06T09:07:15;0.47;;;0.40;;
18090;SDS011;9172;49.948;9.208;2023-08-06T09:09:46;0.60;;;0.53;;
18090;SDS011;9172;49.948;9.208;2023-08-06T09:12:17;1.17;;;0.40;;
18090;SDS011;9172;49.948;9.208;2023-08-06T09:14:46;2.23;;;0.50;;
18090;SDS011;9172;49.948;9.208;2023-08-06T09:17:15;1.47;;;0.60;;
18090;SDS011;9172;49.948;9.208;2023-08-06T09:19:46;1.83;;;0.60;;
18090;SDS011;9172;49.948;9.208;2023-08-06T09:22:16;0.40;;;0.40;;
18090;SDS011;9172;49.948;9.208;2023-08-06T09:24:45;4.80;;;0.53;;
18090;SDS011;9172;49.948;9.208;2023-08-06T09:27:14;0.47;;;0.47;;
18090;SDS011;9172;49.948;9.208;2023-08-06T09:29:44;0.73;;;0.60;;
18090;SDS011;9172;49.948;9.208;2023-08-06T09:32:13;1.73;;;0.57;;
18090;SDS011;9172;49.948;9.208;2023-08-06T09:34:42;1.97;;;0.70;;
18090;SDS011;9172;49.948;9.208;2023-08-06T09:37:13;0.63;;;0.50;;
18090;SDS011;9172;49.948;9.208;2023-08-06T09:39:41;0.70;;;0.50;;
18090;SDS011;9172;49.948;9.208;2023-08-06T09:42:11;0.70;;;0.57;;
18090;SDS011;9172;49.948;9.208;2023-08-06T09:44:43;1.53;;;0.50;;
18090;SDS011;9172;49.948;9.208;2023-08-06T09:47:11;1.00;;;0.57;;
18090;SDS011;9172;49.948;9.208;2023-08-06T09:49:42;0.73;;;0.30;;
18090;SDS011;9172;49.948;9.208;2023-08-06T09:52:12;1.27;;;0.60;;
18090;SDS011;9172;49.948;9.208;2023-08-06T09:54:42;1.17;;;0.50;;
18090;SDS011;9172;49.948;9.208;2023-08-06T09:57:12;0.73;;;0.53;;
18090;SDS011;9172;49.948;9.208;2023-08-06T09:59:41;1.37;;;0.70;;
18090;SDS011;9172;49.948;9.208;2023-08-06T10:02:13;0.47;;;0.47;;
18090;SDS011;9172;49.948;9.208;2023-08-06T10:04:43;4.60;;;0.60;;
18090;SDS011;9172;49.948;9.208;2023-08-06T10:07:13;0.93;;;0.70;;
18090;SDS011;9172;49.948;9.208;2023-08-06T10:09:44;0.70;;;0.40;;
18090;SDS011;9172;49.948;9.208;2023-08-06T10:12:13;0.50;;;0.50;;
18090;SDS011;9172;49.948;9.208;2023-08-06T10:14:44;1.77;;;0.60;;
18090;SDS011;9172;49.948;9.208;2023-08-06T10:17:15;0.30;;;0.30;;
18090;SDS011;9172;49.948;9.208;2023-08-06T10:19:44;1.40;;;0.43;;
18090;SDS011;9172;49.948;9.208;2023-08-06T10:22:15;1.20;;;0.50;;
18090;SDS011;9172;49.948;9.208;2023-08-06T10:24:48;1.43;;;0.50;;
18090;SDS011;9172;49.948;9.208;2023-08-06T10:27:22;0.40;;;0.40;;
18090;SDS011;9172;49.948;9.208;2023-08-06T10:29:52;0.40;;;0.40;;
18090;SDS011;9172;49.948;9.208;2023-08-06T10:32:22;0.67;;;0.50;;
18090;SDS011;9172;49.948;9.208;2023-08-06T10:35:09;2.93;;;0.50;;
18090;SDS011;9172;49.948;9.208;2023-08-06T10:37:44;0.30;;;0.30;;
18090;SDS011;9172;49.948;9.208;2023-08-06T10:40:14;0.80;;;0.47;;
18090;SDS011;9172;49.948;9.208;2023-08-06T10:42:48;0.60;;;0.40;;
18090;SDS011;9172;49.948;9.208;2023-08-06T10:45:17;2.20;;;0.50;;
18090;SDS011;9172;49.948;9.208;2023-08-06T10:47:46;0.80;;;0.40;;
18090;SDS011;9172;49.948;9.208;2023-08-06T10:50:15;0.30;;;0.30;;
18090;SDS011;9172;49.948;9.208;2023-08-06T10:52:44;1.43;;;0.30;;
18090;SDS011;9172;49.948;9.208;2023-08-06T10:55:14;0.40;;;0.40;;
18090;SDS011;9172;49.948;9.208;2023-08-06T10:57:51;0.53;;;0.40;;
18090;SDS011;9172;49.948;9.208;2023-08-06T11:00:21;0.30;;;0.30;;
18090;SDS011;9172;49.948;9.208;2023-08-06T11:02:50;0.47;;;0.30;;
18090;SDS011;9172;49.948;9.208;2023-08-06T11:05:19;3.83;;;0.40;;
18090;SDS011;9172;49.948;9.208;2023-08-06T11:07:48;0.20;;;0.20;;
18090;SDS011;9172;49.948;9.208;2023-08-06T11:10:18;0.33;;;0.30;;
18090;SDS011;9172;49.948;9.208;2023-08-06T11:12:47;1.47;;;0.60;;
18090;SDS011;9172;49.948;9.208;2023-08-06T11:15:16;0.30;;;0.30;;
18090;SDS011;9172;49.948;9.208;2023-08-06T11:17:46;0.57;;;0.40;;
18090;SDS011;9172;49.948;9.208;2023-08-06T11:20:17;0.83;;;0.50;;
18090;SDS011;9172;49.948;9.208;2023-08-06T11:22:48;0.23;;;0.23;;
18090;SDS011;9172;49.948;9.208;2023-08-06T11:25:19;0.80;;;0.30;;
18090;SDS011;9172;49.948;9.208;2023-08-06T11:27:49;0.23;;;0.20;;
18090;SDS011;9172;49.948;9.208;2023-08-06T11:30:18;0.67;;;0.33;;
18090;SDS011;9172;49.948;9.208;2023-08-06T11:32:47;1.80;;;0.30;;
18090;SDS011;9172;49.948;9.208;2023-08-06T11:35:16;0.83;;;0.30;;
18090;SDS011;9172;49.948;9.208;2023-08-06T11:37:45;0.63;;;0.40;;
18090;SDS011;9172;49.948;9.208;2023-08-06T11:40:15;1.33;;;0.43;;
18090;SDS011;9172;49.948;9.208;2023-08-06T11:42:45;0.40;;;0.23;;
18090;SDS011;9172;49.948;9.208;2023-08-06T11:45:15;0.30;;;0.30;;
18090;SDS011;9172;49.948;9.208;2023-08-06T11:47:50;1.10;;;0.40;;
18090;SDS011;9172;49.948;9.208;2023-08-06T11:50:22;0.40;;;0.40;;
18090;SDS011;9172;49.948;9.208;2023-08-06T11:52:53;0.57;;;0.40;;
18090;SDS011;9172;49.948;9.208;2023-08-06T11:55:24;0.87;;;0.40;;
18090;SDS011;9172;49.948;9.208;2023-08-06T11:57:54;1.27;;;0.30;;
18090;SDS011;9172;49.948;9.208;2023-08-06T12:00:23;0.30;;;0.30;;
18090;SDS011;9172;49.948;9.208;2023-08-06T12:02:53;1.80;;;0.40;;
18090;SDS011;9172;49.948;9.208;2023-08-06T12:05:23;1.60;;;0.30;;
18090;SDS011;9172;49.948;9.208;2023-08-06T12:07:54;0.40;;;0.37;;
18090;SDS011;9172;49.948;9.208;2023-08-06T12:10:25;1.53;;;0.43;;
18090;SDS011;9172;49.948;9.208;2023-08-06T12:12:54;0.40;;;0.40;;
18090;SDS011;9172;49.948;9.208;2023-08-06T12:15:24;0.73;;;0.50;;
18090;SDS011;9172;49.948;9.208;2023-08-06T12:17:54;10.93;;;0.77;;
18090;SDS011;9172;49.948;9.208;2023-08-06T12:20:22;2.87;;;0.43;;
18090;SDS011;9172;49.948;9.208;2023-08-06T12:22:51;1.60;;;0.50;;
18090;SDS011;9172;49.948;9.208;2023-08-06T12:25:20;0.90;;;0.40;;
18090;SDS011;9172;49.948;9.208;2023-08-06T12:27:50;0.53;;;0.30;;
18090;SDS011;9172;49.948;9.208;2023-08-06T12:30:20;0.20;;;0.20;;
18090;SDS011;9172;49.948;9.208;2023-08-06T12:32:49;0.30;;;0.20;;
18090;SDS011;9172;49.948;9.208;2023-08-06T12:35:18;0.20;;;0.20;;
18090;SDS011;9172;49.948;9.208;2023-08-06T12:37:48;0.20;;;0.20;;
18090;SDS011;9172;49.948;9.208;2023-08-06T12:40:18;0.93;;;0.30;;
18090;SDS011;9172;49.948;9.208;2023-08-06T12:42:47;0.20;;;0.20;;
18090;SDS011;9172;49.948;9.208;2023-08-06T12:45:17;0.47;;;0.30;;
18090;SDS011;9172;49.948;9.208;2023-08-06T12:47:47;0.30;;;0.30;;
18090;SDS011;9172;49.948;9.208;2023-08-06T12:50:16;0.30;;;0.20;;
18090;SDS011;9172;49.948;9.208;2023-08-06T12:52:45;0.20;;;0.20;;
18090;SDS011;9172;49.948;9.208;2023-08-06T12:55:14;0.40;;;0.30;;
18090;SDS011;9172;49.948;9.208;2023-08-06T12:57:42;0.20;;;0.20;;
18090;SDS011;9172;49.948;9.208;2023-08-06T13:00:11;0.40;;;0.30;;
18090;SDS011;9172;49.948;9.208;2023-08-06T13:02:40;0.53;;;0.40;;
18090;SDS011;9172;49.948;9.208;2023-08-06T13:05:09;0.73;;;0.40;;
18090;SDS011;9172;49.948;9.208;2023-08-06T13:07:39;1.13;;;0.20;;
18090;SDS011;9172;49.948;9.208;2023-08-06T13:10:08;0.57;;;0.30;;
18090;SDS011;9172;49.948;9.208;2023-08-06T13:12:38;2.00;;;0.50;;
18090;SDS011;9172;49.948;9.208;2023-08-06T13:15:08;0.73;;;0.40;;
18090;SDS011;9172;49.948;9.208;2023-08-06T13:17:37;0.33;;;0.30;;
18090;SDS011;9172;49.948;9.208;2023-08-06T13:20:07;0.50;;;0.40;;
18090;SDS011;9172;49.948;9.208;2023-08-06T13:22:36;0.60;;;0.30;;
18090;SDS011;9172;49.948;9.208;2023-08-06T13:25:05;0.60;;;0.40;;
18090;SDS011;9172;49.948;9.208;2023-08-06T13:27:34;1.00;;;0.40;;
18090;SDS011;9172;49.948;9.208;2023-08-06T13:30:03;0.50;;;0.40;;
18090;SDS011;9172;49.948;9.208;2023-08-06T13:32:34;1.17;;;0.50;;
18090;SDS011;9172;49.948;9.208;2023-08-06T13:35:03;0.50;;;0.30;;
18090;SDS011;9172;49.948;9.208;2023-08-06T13:37:32;0.87;;;0.40;;
18090;SDS011;9172;49.948;9.208;2023-08-06T13:40:01;0.77;;;0.40;;
18090;SDS011;9172;49.948;9.208;2023-08-06T13:42:30;0.90;;;0.50;;
18090;SDS011;9172;49.948;9.208;2023-08-06T13:44:59;1.00;;;0.43;;
18090;SDS011;9172;49.948;9.208;2023-08-06T13:47:30;0.60;;;0.50;;
18090;SDS011;9172;49.948;9.208;2023-08-06T13:49:59;1.37;;;0.73;;
18090;SDS011;9172;49.948;9.208;2023-08-06T13:52:29;1.60;;;0.50;;
18090;SDS011;9172;49.948;9.208;2023-08-06T13:54:59;0.73;;;0.63;;
18090;SDS011;9172;49.948;9.208;2023-08-06T13:57:30;0.97;;;0.43;;
18090;SDS011;9172;49.948;9.208;2023-08-06T13:59:58;0.63;;;0.50;;
18090;SDS011;9172;49.948;9.208;2023-08-06T14:02:28;1.20;;;0.50;;
18090;SDS011;9172;49.948;9.208;2023-08-06T14:04:57;0.87;;;0.53;;
18090;SDS011;9172;49.948;9.208;2023-08-06T14:07:25;1.77;;;0.60;;
18090;SDS011;9172;49.948;9.208;2023-08-06T14:09:55;2.20;;;0.47;;
18090;SDS011;9172;49.948;9.208;2023-08-06T14:12:24;0.40;;;0.40;;
18090;SDS011;9172;49.948;9.208;2023-08-06T14:14:53;0.63;;;0.50;;
18090;SDS011;9172;49.948;9.208;2023-08-06T14:17:21;1.77;;;0.60;;
18090;SDS011;9172;49.948;9.208;2023-08-06T14:19:50;2.83;;;0.50;;
18090;SDS011;9172;49.948;9.208;2023-08-06T14:22:19;0.87;;;0.57;;
18090;SDS011;9172;49.948;9.208;2023-08-06T14:24:49;3.00;;;0.80;;
18090;SDS011;9172;49.948;9.208;2023-08-06T14:27:19;3.93;;;0.90;;
18090;SDS011;9172;49.948;9.208;2023-08-06T14:29:48;1.57;;;1.10;;
18090;SDS011;9172;49.948;9.208;2023-08-06T14:32:17;0.63;;;0.53;;
18090;SDS011;9172;49.948;9.208;2023-08-06T14:34:48;1.47;;;0.63;;
18090;SDS011;9172;49.948;9.208;2023-08-06T14:37:17;1.60;;;0.70;;
18090;SDS011;9172;49.948;9.208;2023-08-06T14:39:46;1.17;;;0.70;;
18090;SDS011;9172;49.948;9.208;2023-08-06T14:42:15;2.37;;;0.90;;
18090;SDS011;9172;49.948;9.208;2023-08-06T14:44:44;1.87;;;0.60;;
18090;SDS011;9172;49.948;9.208;2023-08-06T14:47:14;3.20;;;0.77;;
18090;SDS011;9172;49.948;9.208;2023-08-06T14:49:42;1.73;;;0.50;;
18090;SDS011;9172;49.948;9.208;2023-08-06T14:52:15;1.00;;;0.70;;
18090;SDS011;9172;49.948;9.208;2023-08-06T14:54:43;1.73;;;0.60;;
18090;SDS011;9172;49.948;9.208;2023-08-06T14:57:13;1.13;;;0.60;;
18090;SDS011;9172;49.948;9.208;2023-08-06T14:59:42;1.80;;;0.50;;
18090;SDS011;9172;49.948;9.208;2023-08-06T15:02:11;1.17;;;0.60;;
18090;SDS011;9172;49.948;9.208;2023-08-06T15:04:40;1.83;;;0.70;;
18090;SDS011;9172;49.948;9.208;2023-08-06T15:07:08;2.07;;;0.40;;
18090;SDS011;9172;49.948;9.208;2023-08-06T15:09:37;2.60;;;0.50;;
18090;SDS011;9172;49.948;9.208;2023-08-06T15:12:06;1.00;;;0.50;;
18090;SDS011;9172;49.948;9.208;2023-08-06T15:14:35;2.40;;;0.60;;
18090;SDS011;9172;49.948;9.208;2023-08-06T15:17:04;1.07;;;0.50;;